• Join FlightAware (Why Join?)
  • Login
  • US Flag 
12:59AM EDT


 

Airport Tracker/Info


-or-


 

Live Flight TrackerFlight Track Log ✈ UAL5832 ✈ 12-Apr-2013 ✈ KORD - KBNA

Flight Track Log - Related Links

Times and Time Zones

All times are in EDT time to prevent confusion due to time zone crossing. See the UAL5832 flight status page for this flight to view local times or setup timezone preferences in your user account.

Time Position Orientation Groundspeed Altitude Reporting Facility
EDT Latitude Longitude Course Direction KTS MPH feet Rate Location/Type
08:21PM 41.9333 -87.9167 170° South 148 170 3,100  Level Chicago TRACON
08:24PM 41.8092 -87.8903 171° South 247 284 7,000 1,800 Climbing Chicago Center
08:25PM 41.7339 -87.8881 179° South 267 307 8,800 1,920 Climbing Chicago Center
08:26PM 41.6542 -87.8858 179° South 284 327 11,000 1,980 Climbing Chicago Center
08:27PM 41.3876 -87.7722 170° South  Level Estimated
08:27PM 41.5731 -87.8831 179° South 288 331 13,000  Level Chicago Center
08:28PM 41.4864 -87.8800 178° South 305 351 13,800 960 Climbing Chicago Center
08:29PM 41.3900 -87.8792 180° South 337 388 15,000 1,020 Climbing Chicago Center
08:30PM 41.2925 -87.8894 185° South 345 397 16,000 960 Climbing Chicago Center
08:31PM 41.1919 -87.8914 181° South 359 413 17,000 1,080 Climbing Chicago Center
08:32PM 41.0675 -87.8875 179° South 370 426 18,300 1,200 Climbing Chicago Center
08:33PM 40.9639 -87.8844 179° South 374 430 19,500 1,140 Climbing Chicago Center
08:34PM 40.8586 -87.8742 176° South 378 435 20,700 1,080 Climbing Chicago Center
08:35PM 40.7536 -87.8539 172° South 380 437 21,800 1,080 Climbing Chicago Center
08:36PM 40.6478 -87.8342 172° South 384 442 23,000 1,140 Climbing Chicago Center
08:37PM 40.5414 -87.8153 172° South 387 445 24,200 1,200 Climbing Chicago Center
08:38PM 40.4150 -87.7911 172° South 385 443 25,500 1,140 Climbing Chicago Center
08:39PM 40.3333 -87.7753 172° South 384 442 26,400 1,080 Climbing Indianapolis Center
08:40PM 40.2294 -87.7567 172° South 380 437 27,600 1,080 Climbing Indianapolis Center
08:41PM 40.1250 -87.7383 172° South 377 434 28,700 660 Climbing Indianapolis Center
08:42PM 40.0203 -87.7200 172° South 378 435 29,000 120 Climbing Indianapolis Center
08:43PM 39.9086 -87.6978 171° South 394 453 29,000  Level Indianapolis Center
08:44PM 39.7686 -87.6719 172° South 411 473 29,000  Level Indianapolis Center
08:45PM 39.6483 -87.6503 172° South 424 488 29,000  Level Indianapolis Center
08:46PM 39.5264 -87.6306 173° South 436 502 29,000  Level Indianapolis Center
08:47PM 39.4053 -87.6094 172° South 438 504 29,000  Level Indianapolis Center
08:48PM 39.2842 -87.5872 172° South 436 502 29,000  Level Indianapolis Center
08:49PM 39.1633 -87.5675 173° South 437 503 29,000  Level Indianapolis Center
08:50PM 39.0439 -87.5450 172° South 433 498 29,000  Level Indianapolis Center
08:51PM 38.9222 -87.5233 172° South 437 503 29,000  Level Indianapolis Center
08:52PM 38.7786 -87.4983 172° South 435 501 29,000  Level Indianapolis Center
08:53PM 38.6583 -87.4781 173° South 435 501 29,000  Level Indianapolis Center
08:54PM 38.5383 -87.4564 172° South 435 501 29,000  Level Indianapolis Center
08:55PM 38.4194 -87.4367 173° South 434 499 29,000  Level Indianapolis Center
08:56PM 38.3008 -87.4158 172° South 433 498 29,000  Level Indianapolis Center
08:57PM 38.1828 -87.3961 173° South 433 498 29,000  Level Indianapolis Center
08:58PM 38.0400 -87.3722 172° South 433 498 29,000  Level Indianapolis Center
08:59PM 37.9219 -87.3506 172° South 431 496 29,000  Level Indianapolis Center
09:00PM 37.8044 -87.3308 172° South 428 493 29,000 -420 Level Indianapolis Center
09:01PM 37.6833 -87.3125 173° South 427 491 28,200 -1,440 Descending Indianapolis Center
09:02PM 37.5669 -87.2925 172° South 418 481 26,100 -2,100 Descending Indianapolis Center
09:04PM 37.4183 -87.2703 173° South 431 496 23,700 -1,440 Descending Memphis Center
09:05PM 37.3031 -87.2408 169° South 431 496 23,000 -780 Descending Memphis Center
09:05PM 37.2297 -87.2231 169° South 427 491 22,500 -1,020 Descending Memphis Center
09:06PM 37.1878 -87.2064 162° South 431 496 22,000 -1,560 Descending Memphis Center
09:06PM 37.1017 -87.1839 168° South 424 488 20,800 -1,920 Descending Memphis Center
09:07PM 37.0722 -87.1747 166° South 431 496 20,100 -2,880 Descending Memphis Center
09:07PM 36.9925 -87.1519 167° South 410 472 17,900 -2,340 Descending Memphis Center
09:08PM 36.8853 -87.1197 166° South 375 432 16,000 -1,620 Descending Memphis Center
09:10PM 36.7611 -87.0653 161° South 389 448 14,400 -1,680 Descending Memphis Center
09:11PM 36.6614 -87.0047 154° Southeast 394 453 12,400 -1,980 Descending Memphis Center
09:12PM 36.5789 -86.9539 154° Southeast 389 448 10,500 -1,500 Descending Memphis Center
09:13PM 36.5061 -86.8847 143° Southeast 355 409 9,400 -1,320 Descending Memphis Center
09:14PM 36.4375 -86.8181 142° Southeast 319 367 7,900 -1,380 Descending Memphis Center
09:15PM 36.3608 -86.7619 149° Southeast 303 349 6,700 -1,800 Descending Memphis Center
09:16PM 36.2969 -86.7186 151° Southeast 274 315 4,300 -1,980 Descending Memphis Center
09:17PM 36.2372 -86.6747 149° Southeast 259 298 2,800 -1,260 Descending Memphis Center
09:18PM 36.1847 -86.6592 167° South 219 252 1,800 -1,020 Descending Memphis Center
09:19PM 36.1478 -86.6764 201° Southwest 148 170 800 3,600 Descending Memphis Center
09:20PM 36.1106 -86.6883 195° South 148 170 9,000 8,160 Climbing Memphis Center
09:22PM 36.1167 -86.6667 90° East  Level FlightAware Approximate
09:29PM 36.1245 -86.6782 90° East  Level Estimated
09:30PM 36.1245 -86.6782 90° East  Level Estimated
09:31PM 36.1245 -86.6782 90° East  Level Estimated
09:32PM 36.1245 -86.6782 90° East  Level Estimated
09:33PM 36.1245 -86.6782 90° East  Level Estimated
09:34PM 36.1245 -86.6782 90° East  Level Estimated
09:35PM 36.1245 -86.6782 90° East  Level Estimated
09:36PM 36.1245 -86.6782 90° East  Level Estimated